createdAt,value
2023-04-26T00:00:37.737Z,21.41
2023-04-26T00:01:43.121Z,21.4
2023-04-26T00:02:48.555Z,21.41
2023-04-26T00:03:54.509Z,21.4
2023-04-26T00:05:01.131Z,21.42
2023-04-26T00:06:07.295Z,21.42
2023-04-26T00:07:12.774Z,21.43
2023-04-26T00:08:18.180Z,21.44
2023-04-26T00:09:23.615Z,21.43
2023-04-26T00:10:29.000Z,21.45
2023-04-26T00:11:34.384Z,21.46
2023-04-26T00:12:39.773Z,21.44
2023-04-26T00:13:45.217Z,21.45
2023-04-26T00:14:50.642Z,21.49
2023-04-26T00:15:56.066Z,21.47
2023-04-26T00:17:01.600Z,21.45
2023-04-26T00:18:07.059Z,21.43
2023-04-26T00:19:12.601Z,21.43
2023-04-26T00:20:18.108Z,21.41
2023-04-26T00:21:23.531Z,21.41
2023-04-26T00:22:28.926Z,21.4
2023-04-26T00:23:34.303Z,21.38
2023-04-26T00:24:39.698Z,21.38
2023-04-26T00:25:45.117Z,21.37
2023-04-26T00:26:50.501Z,21.38
2023-04-26T00:27:55.876Z,21.4
2023-04-26T00:29:01.237Z,21.39
2023-04-26T00:30:06.647Z,21.39
2023-04-26T00:31:12.073Z,21.37
2023-04-26T00:32:17.580Z,21.35
2023-04-26T00:33:23.053Z,21.36
2023-04-26T00:34:28.443Z,21.36
2023-04-26T00:35:33.839Z,21.35
2023-04-26T00:36:39.222Z,21.35
2023-04-26T00:37:44.657Z,21.35
2023-04-26T00:38:50.366Z,21.36
2023-04-26T00:39:56.806Z,21.35
2023-04-26T00:41:02.192Z,21.34
2023-04-26T00:42:07.640Z,21.35
2023-04-26T00:43:13.084Z,21.36
2023-04-26T00:44:18.487Z,21.39
2023-04-26T00:45:23.890Z,21.39
2023-04-26T00:46:29.469Z,21.37
2023-04-26T00:47:34.880Z,21.36
2023-04-26T00:48:40.347Z,21.34
2023-04-26T00:49:45.751Z,21.33
2023-04-26T00:50:51.130Z,21.36
2023-04-26T00:51:56.501Z,21.35
2023-04-26T00:53:01.876Z,21.34
2023-04-26T00:54:07.272Z,21.33
2023-04-26T00:55:12.731Z,21.34
2023-04-26T00:56:18.126Z,21.33
2023-04-26T00:57:23.666Z,21.36
2023-04-26T00:58:29.069Z,21.4
2023-04-26T00:59:34.513Z,21.36
2023-04-26T01:00:39.993Z,21.36
2023-04-26T01:01:45.494Z,21.38
2023-04-26T01:02:50.948Z,21.38
2023-04-26T01:03:56.919Z,21.38
2023-04-26T01:05:02.856Z,21.37
2023-04-26T01:06:08.265Z,21.4
2023-04-26T01:07:13.675Z,21.4
2023-04-26T01:08:19.044Z,21.37
2023-04-26T01:09:24.516Z,21.37
2023-04-26T01:10:29.907Z,21.36
2023-04-26T01:11:35.298Z,21.35
2023-04-26T01:12:40.700Z,21.34
2023-04-26T01:13:46.126Z,21.33
2023-04-26T01:14:51.546Z,21.34
2023-04-26T01:15:56.933Z,21.35
2023-04-26T01:17:02.334Z,21.36
2023-04-26T01:18:07.948Z,21.34
2023-04-26T01:19:13.387Z,21.33
2023-04-26T01:20:18.824Z,21.32
2023-04-26T01:21:24.274Z,21.32
2023-04-26T01:22:29.679Z,21.32
2023-04-26T01:23:35.059Z,21.32
2023-04-26T01:24:40.479Z,21.34
2023-04-26T01:25:45.923Z,21.34
2023-04-26T01:26:51.305Z,21.34
2023-04-26T01:27:56.728Z,21.32
2023-04-26T01:29:02.140Z,21.33
2023-04-26T01:30:07.516Z,21.33
2023-04-26T01:31:12.930Z,21.33
2023-04-26T01:32:18.724Z,21.34
2023-04-26T01:33:24.170Z,21.32
2023-04-26T01:34:29.602Z,21.32
2023-04-26T01:35:34.981Z,21.31
2023-04-26T01:36:40.393Z,21.32
2023-04-26T01:37:45.804Z,21.32
2023-04-26T01:38:51.352Z,21.31
2023-04-26T01:39:57.195Z,21.3
2023-04-26T01:41:02.557Z,21.32
2023-04-26T01:42:07.915Z,21.33
2023-04-26T01:43:13.313Z,21.34
2023-04-26T01:44:18.722Z,21.34
2023-04-26T01:45:24.147Z,21.32
2023-04-26T01:46:29.536Z,21.31
2023-04-26T01:47:35.090Z,21.32
2023-04-26T01:48:40.730Z,21.3
2023-04-26T01:49:46.124Z,21.29
2023-04-26T01:50:51.524Z,21.28
2023-04-26T01:51:56.986Z,21.28
2023-04-26T01:53:02.380Z,21.3
2023-04-26T01:54:07.764Z,21.31
2023-04-26T01:55:13.164Z,21.32
2023-04-26T01:56:18.602Z,21.31
2023-04-26T01:57:23.989Z,21.33
2023-04-26T01:58:29.373Z,21.33
2023-04-26T01:59:34.825Z,21.31
2023-04-26T02:00:40.239Z,21.32
2023-04-26T02:01:45.644Z,21.33
2023-04-26T02:02:51.218Z,21.31
2023-04-26T02:03:56.803Z,21.34
2023-04-26T02:05:02.268Z,21.33
2023-04-26T02:06:07.786Z,21.31
2023-04-26T02:07:13.173Z,21.31
2023-04-26T02:08:18.513Z,21.3
2023-04-26T02:09:24.016Z,21.31
2023-04-26T02:10:29.554Z,21.31
2023-04-26T02:11:34.969Z,21.3
2023-04-26T02:12:40.339Z,21.3
2023-04-26T02:13:45.715Z,21.31
2023-04-26T02:14:51.075Z,21.3
2023-04-26T02:15:56.616Z,21.3
2023-04-26T02:17:02.341Z,21.33
2023-04-26T02:18:07.746Z,21.31
2023-04-26T02:19:13.295Z,21.31
2023-04-26T02:20:18.654Z,21.3
2023-04-26T02:21:24.024Z,21.29
2023-04-26T02:22:29.447Z,21.3
2023-04-26T02:23:34.987Z,21.31
2023-04-26T02:24:40.424Z,21.28
2023-04-26T02:25:45.797Z,21.28
2023-04-26T02:26:51.294Z,21.27
2023-04-26T02:27:56.760Z,21.28
2023-04-26T02:29:02.176Z,21.26
2023-04-26T02:30:07.554Z,21.26
2023-04-26T02:31:12.954Z,21.27
2023-04-26T02:32:18.472Z,21.27
2023-04-26T02:33:23.907Z,21.28
2023-04-26T02:34:29.327Z,21.27
2023-04-26T02:35:34.698Z,21.25
2023-04-26T02:36:40.166Z,21.25
2023-04-26T02:37:45.546Z,21.26
2023-04-26T02:38:51.063Z,21.24
2023-04-26T02:39:57.261Z,21.25
2023-04-26T02:41:02.734Z,21.25
2023-04-26T02:42:08.117Z,21.24
2023-04-26T02:43:13.572Z,21.24
2023-04-26T02:44:18.974Z,21.25
2023-04-26T02:45:24.346Z,21.25
2023-04-26T02:46:29.829Z,21.28
2023-04-26T02:47:35.334Z,21.27
2023-04-26T02:48:40.837Z,21.27
2023-04-26T02:49:46.298Z,21.25
2023-04-26T02:50:51.678Z,21.24
2023-04-26T02:51:57.065Z,21.25
2023-04-26T02:53:02.458Z,21.25
2023-04-26T02:54:07.911Z,21.23
2023-04-26T02:55:13.293Z,21.23
2023-04-26T02:56:18.656Z,21.23
2023-04-26T02:57:24.070Z,21.24
2023-04-26T02:58:29.522Z,21.25
2023-04-26T02:59:34.930Z,21.25
2023-04-26T03:00:40.455Z,21.23
2023-04-26T03:01:45.991Z,21.21
2023-04-26T03:02:51.569Z,21.21
2023-04-26T03:03:57.732Z,21.21
2023-04-26T03:05:03.407Z,21.21
2023-04-26T03:06:08.814Z,21.23
2023-04-26T03:07:14.188Z,21.23
2023-04-26T03:08:19.593Z,21.22
2023-04-26T03:09:24.980Z,21.23
2023-04-26T03:10:30.354Z,21.22
2023-04-26T03:11:35.795Z,21.22
2023-04-26T03:12:41.176Z,21.21
2023-04-26T03:13:46.551Z,21.21
2023-04-26T03:14:51.983Z,21.21
2023-04-26T03:15:57.381Z,21.21
2023-04-26T03:17:02.847Z,21.2
2023-04-26T03:18:08.271Z,21.21
2023-04-26T03:19:13.792Z,21.2
2023-04-26T03:20:19.163Z,21.2
2023-04-26T03:21:24.547Z,21.2
2023-04-26T03:22:29.918Z,21.22
2023-04-26T03:23:35.417Z,21.22
2023-04-26T03:24:40.785Z,21.24
2023-04-26T03:25:46.146Z,21.24
2023-04-26T03:26:51.549Z,21.26
2023-04-26T03:27:56.947Z,21.26
2023-04-26T03:29:02.306Z,21.27
2023-04-26T03:30:07.706Z,21.27
2023-04-26T03:31:13.070Z,21.29
2023-04-26T03:32:18.509Z,21.28
2023-04-26T03:33:23.910Z,21.3
2023-04-26T03:34:29.290Z,21.32
2023-04-26T03:35:34.670Z,21.33
2023-04-26T03:36:40.020Z,21.32
2023-04-26T03:37:45.435Z,21.33
2023-04-26T03:38:50.870Z,21.33
2023-04-26T03:39:56.825Z,21.33
2023-04-26T03:41:02.208Z,21.34
2023-04-26T03:42:07.635Z,21.35
2023-04-26T03:43:13.015Z,21.36
2023-04-26T03:44:18.390Z,21.34
2023-04-26T03:45:23.846Z,21.33
2023-04-26T03:46:29.398Z,21.33
2023-04-26T03:47:35.068Z,21.34
2023-04-26T03:48:40.591Z,21.33
2023-04-26T03:49:45.987Z,21.34
2023-04-26T03:50:51.428Z,21.38
2023-04-26T03:51:56.795Z,21.43
2023-04-26T03:53:02.218Z,21.47
2023-04-26T03:54:07.579Z,21.48
2023-04-26T03:55:12.964Z,21.47
2023-04-26T03:56:18.333Z,21.45
2023-04-26T03:57:23.747Z,21.44
2023-04-26T03:58:29.113Z,21.43
2023-04-26T03:59:34.487Z,21.42
2023-04-26T04:00:39.885Z,21.42
2023-04-26T04:01:45.284Z,21.42
2023-04-26T04:02:50.740Z,21.5
2023-04-26T04:03:56.885Z,21.5
2023-04-26T04:05:03.469Z,21.46
2023-04-26T04:06:09.112Z,21.44
2023-04-26T04:07:14.484Z,21.44
2023-04-26T04:08:19.867Z,21.47
2023-04-26T04:09:25.268Z,21.51
2023-04-26T04:10:30.652Z,21.57
2023-04-26T04:11:36.030Z,21.62
2023-04-26T04:12:41.427Z,21.67
2023-04-26T04:13:46.799Z,21.73
2023-04-26T04:14:52.222Z,21.8
2023-04-26T04:15:57.619Z,21.86
2023-04-26T04:17:03.137Z,21.92
2023-04-26T04:18:08.556Z,21.98
2023-04-26T04:19:14.147Z,22.04
2023-04-26T04:20:19.521Z,22.09
2023-04-26T04:21:24.956Z,22.15
2023-04-26T04:22:30.279Z,22.19
2023-04-26T04:23:35.632Z,22.2
2023-04-26T04:24:40.986Z,22.22
2023-04-26T04:25:46.376Z,22.24
2023-04-26T04:26:51.746Z,22.27
2023-04-26T04:27:57.107Z,22.25
2023-04-26T04:29:02.543Z,22.24
2023-04-26T04:30:07.922Z,22.23
2023-04-26T04:31:13.359Z,22.23
2023-04-26T04:32:18.882Z,22.22
2023-04-26T04:33:24.647Z,22.21
2023-04-26T04:34:30.111Z,22.19
2023-04-26T04:35:35.517Z,22.18
2023-04-26T04:36:40.905Z,22.16
2023-04-26T04:37:46.310Z,22.14
2023-04-26T04:38:51.907Z,22.13
2023-04-26T04:39:58.002Z,22.12
2023-04-26T04:41:03.374Z,22.11
2023-04-26T04:42:08.779Z,22.11
2023-04-26T04:43:14.193Z,22.08
2023-04-26T04:44:19.635Z,22.06
2023-04-26T04:45:25.019Z,22.05
2023-04-26T04:46:30.438Z,22.03
2023-04-26T04:47:35.913Z,22.02
2023-04-26T04:48:41.363Z,21.99
2023-04-26T04:49:46.836Z,21.97
2023-04-26T04:50:52.198Z,21.96
2023-04-26T04:51:57.589Z,21.94
2023-04-26T04:53:02.957Z,21.91
2023-04-26T04:54:08.338Z,21.9
2023-04-26T04:55:13.732Z,21.88
2023-04-26T04:56:19.112Z,21.87
2023-04-26T04:57:24.535Z,21.87
2023-04-26T04:58:29.919Z,21.84
2023-04-26T04:59:35.340Z,21.85
2023-04-26T05:00:40.744Z,21.85
2023-04-26T05:01:46.217Z,21.86
2023-04-26T05:02:51.759Z,21.84
2023-04-26T05:03:58.113Z,21.82
2023-04-26T05:05:04.301Z,21.8
2023-04-26T05:06:10.326Z,21.82
2023-04-26T05:07:15.733Z,21.81
2023-04-26T05:08:21.129Z,21.8
2023-04-26T05:09:26.514Z,21.79
2023-04-26T05:10:31.876Z,21.78
2023-04-26T05:11:37.268Z,21.77
2023-04-26T05:12:42.663Z,21.76
2023-04-26T05:13:48.300Z,21.74
2023-04-26T05:14:57.241Z,21.74
2023-04-26T05:16:02.603Z,21.74
2023-04-26T05:17:08.135Z,21.72
2023-04-26T05:18:13.564Z,21.72
2023-04-26T05:19:19.004Z,21.7
2023-04-26T05:20:24.364Z,21.69
2023-04-26T05:21:29.757Z,21.68
2023-04-26T05:22:35.235Z,21.67
2023-04-26T05:23:40.646Z,21.66
2023-04-26T05:24:46.065Z,21.65
2023-04-26T05:25:51.668Z,21.65
2023-04-26T05:26:57.074Z,21.65
2023-04-26T05:28:02.441Z,21.63
2023-04-26T05:29:08.009Z,21.63
2023-04-26T05:30:13.629Z,21.6
2023-04-26T05:31:19.207Z,21.59
2023-04-26T05:32:26.216Z,21.6
2023-04-26T05:33:31.832Z,21.59
2023-04-26T05:34:37.248Z,21.59
2023-04-26T05:35:42.728Z,21.57
2023-04-26T05:36:48.133Z,21.57
2023-04-26T05:37:53.554Z,21.57
2023-04-26T05:38:58.938Z,21.55
2023-04-26T05:40:04.359Z,21.57
2023-04-26T05:41:09.732Z,21.57
2023-04-26T05:42:17.052Z,21.56
2023-04-26T05:43:23.149Z,21.55
2023-04-26T05:44:28.520Z,21.55
2023-04-26T05:45:33.934Z,21.55
2023-04-26T05:46:39.519Z,21.53
2023-04-26T05:47:44.974Z,21.52
2023-04-26T05:48:50.546Z,21.52
2023-04-26T05:49:56.029Z,21.53
2023-04-26T05:51:01.432Z,21.53
2023-04-26T05:52:06.852Z,21.53
2023-04-26T05:53:12.352Z,21.52
2023-04-26T05:54:17.740Z,21.5
2023-04-26T05:55:23.307Z,21.52
2023-04-26T05:56:28.894Z,21.53
2023-04-26T05:57:34.335Z,21.55
2023-04-26T05:58:39.880Z,21.55
2023-04-26T05:59:45.424Z,21.53
2023-04-26T06:00:50.832Z,21.56
2023-04-26T06:01:56.410Z,21.57
2023-04-26T06:03:02.079Z,21.57
2023-04-26T06:04:08.639Z,21.6
2023-04-26T06:05:15.677Z,21.58
2023-04-26T06:06:21.402Z,21.58
2023-04-26T06:07:26.789Z,21.59
2023-04-26T06:08:32.158Z,21.61
2023-04-26T06:09:37.544Z,21.6
2023-04-26T06:10:42.918Z,21.59
2023-04-26T06:11:48.308Z,21.57
2023-04-26T06:12:53.691Z,21.58
2023-04-26T06:13:59.072Z,21.58
2023-04-26T06:15:04.473Z,21.57
2023-04-26T06:16:10.240Z,21.55
2023-04-26T06:17:15.729Z,21.55
2023-04-26T06:18:21.278Z,21.56
2023-04-26T06:19:26.730Z,21.56
2023-04-26T06:20:32.098Z,21.57
2023-04-26T06:21:37.480Z,21.59
2023-04-26T06:22:42.935Z,21.58
2023-04-26T06:23:48.393Z,21.6
2023-04-26T06:24:54.188Z,21.57
2023-04-26T06:25:59.555Z,21.57
2023-04-26T06:27:04.941Z,21.57
2023-04-26T06:28:10.364Z,21.57
2023-04-26T06:29:15.765Z,21.58
2023-04-26T06:30:21.164Z,21.57
2023-04-26T06:31:26.613Z,21.59
2023-04-26T06:32:32.235Z,21.57
2023-04-26T06:33:37.734Z,21.56
2023-04-26T06:34:43.122Z,21.55
2023-04-26T06:35:48.534Z,21.54
2023-04-26T06:36:53.946Z,21.54
2023-04-26T06:37:59.356Z,21.55
2023-04-26T06:39:04.836Z,21.53
2023-04-26T06:40:10.282Z,21.52
2023-04-26T06:41:15.757Z,21.53
2023-04-26T06:42:21.149Z,21.53
2023-04-26T06:43:26.557Z,21.52
2023-04-26T06:44:31.937Z,21.53
2023-04-26T06:45:37.326Z,21.49
2023-04-26T06:46:46.313Z,21.52
2023-04-26T06:47:51.905Z,21.53
2023-04-26T06:48:57.509Z,21.53
2023-04-26T06:50:02.872Z,21.51
2023-04-26T06:51:08.689Z,21.52
2023-04-26T06:52:14.075Z,21.51
2023-04-26T06:53:21.151Z,21.51
2023-04-26T06:54:28.297Z,21.52
2023-04-26T06:55:33.850Z,21.52
2023-04-26T06:56:39.271Z,21.52
2023-04-26T06:57:44.643Z,21.5
2023-04-26T06:58:50.358Z,21.5
2023-04-26T06:59:55.741Z,21.5
2023-04-26T07:01:01.114Z,21.52
2023-04-26T07:02:06.622Z,21.5
2023-04-26T07:03:12.289Z,21.51
2023-04-26T07:04:18.323Z,21.51
2023-04-26T07:05:24.351Z,21.49
2023-04-26T07:06:30.036Z,21.49
2023-04-26T07:07:35.704Z,21.52
2023-04-26T07:08:41.296Z,21.5
2023-04-26T07:09:46.814Z,21.5
2023-04-26T07:10:52.287Z,21.5
2023-04-26T07:11:57.903Z,21.5
2023-04-26T07:13:03.315Z,21.48
2023-04-26T07:14:12.062Z,21.47
2023-04-26T07:15:17.515Z,21.41
2023-04-26T07:16:23.053Z,21.44
2023-04-26T07:17:28.648Z,21.45
2023-04-26T07:18:34.110Z,21.47
2023-04-26T07:19:39.499Z,21.45
2023-04-26T07:20:44.937Z,21.46
2023-04-26T07:21:50.332Z,21.46
2023-04-26T07:22:55.907Z,21.47
2023-04-26T07:24:01.321Z,21.47
2023-04-26T07:25:06.700Z,21.47
2023-04-26T07:26:12.225Z,21.47
2023-04-26T07:27:17.648Z,21.45
2023-04-26T07:28:23.075Z,21.43
2023-04-26T07:29:29.067Z,21.43
2023-04-26T07:30:34.408Z,21.42
2023-04-26T07:31:39.836Z,21.42
2023-04-26T07:32:45.375Z,21.42
2023-04-26T07:33:51.463Z,21.43
2023-04-26T07:34:57.920Z,21.45
2023-04-26T07:36:03.295Z,21.45
2023-04-26T07:37:08.642Z,21.43
2023-04-26T07:38:14.051Z,21.42
2023-04-26T07:39:19.420Z,21.42
2023-04-26T07:40:25.017Z,21.42
2023-04-26T07:41:30.432Z,21.43
2023-04-26T07:42:35.838Z,21.42
2023-04-26T07:43:41.214Z,21.44
2023-04-26T07:44:46.575Z,21.44
2023-04-26T07:45:51.973Z,21.43
2023-04-26T07:46:57.562Z,21.42
2023-04-26T07:48:03.065Z,21.4
2023-04-26T07:49:08.610Z,21.4
2023-04-26T07:50:14.005Z,21.39
2023-04-26T07:51:19.390Z,21.4
2023-04-26T07:52:24.758Z,21.41
2023-04-26T07:53:30.224Z,21.38
2023-04-26T07:54:35.586Z,21.41
2023-04-26T07:55:40.980Z,21.4
2023-04-26T07:56:46.321Z,21.39
2023-04-26T07:57:51.695Z,21.39
2023-04-26T07:58:57.234Z,21.4
2023-04-26T08:00:02.690Z,21.42
2023-04-26T08:01:08.080Z,21.41
2023-04-26T08:02:13.614Z,21.38
2023-04-26T08:03:19.371Z,21.39
2023-04-26T08:04:25.450Z,21.37
2023-04-26T08:05:31.534Z,21.38
2023-04-26T08:06:37.828Z,21.41
2023-04-26T08:07:43.211Z,21.39
2023-04-26T08:08:48.637Z,21.4
2023-04-26T08:09:53.999Z,21.38
2023-04-26T08:10:59.399Z,21.39
2023-04-26T08:12:04.881Z,21.41
2023-04-26T08:13:10.614Z,21.36
2023-04-26T08:14:15.990Z,21.35
2023-04-26T08:15:21.397Z,21.36
2023-04-26T08:16:26.811Z,21.34
2023-04-26T08:17:32.500Z,21.34
2023-04-26T08:18:38.131Z,21.32
2023-04-26T08:19:43.592Z,21.34
2023-04-26T08:20:48.964Z,21.36
2023-04-26T08:21:54.337Z,21.34
2023-04-26T08:22:59.783Z,21.37
2023-04-26T08:24:05.559Z,21.37
2023-04-26T08:25:10.966Z,21.4
2023-04-26T08:26:16.347Z,21.38
2023-04-26T08:27:21.807Z,21.38
2023-04-26T08:28:27.292Z,21.37
2023-04-26T08:29:32.669Z,21.38
2023-04-26T08:30:38.081Z,21.38
2023-04-26T08:31:43.578Z,21.36
2023-04-26T08:32:48.989Z,21.37
2023-04-26T08:33:54.662Z,21.35
2023-04-26T08:35:00.198Z,21.37
2023-04-26T08:36:05.633Z,21.34
2023-04-26T08:37:11.022Z,21.32
2023-04-26T08:38:16.404Z,21.34
2023-04-26T08:39:21.830Z,21.37
2023-04-26T08:40:27.214Z,21.36
2023-04-26T08:41:32.576Z,21.37
2023-04-26T08:42:38.041Z,21.33
2023-04-26T08:43:43.410Z,21.32
2023-04-26T08:44:48.854Z,21.32
2023-04-26T08:45:54.325Z,21.3
2023-04-26T08:46:59.806Z,21.31
2023-04-26T08:48:05.189Z,21.34
2023-04-26T08:49:10.736Z,21.32
2023-04-26T08:50:16.200Z,21.33
2023-04-26T08:51:21.649Z,21.32
2023-04-26T08:52:27.049Z,21.3
2023-04-26T08:53:32.421Z,21.32
2023-04-26T08:54:37.823Z,21.28
2023-04-26T08:55:43.231Z,21.26
2023-04-26T08:56:48.596Z,21.27
2023-04-26T08:57:53.978Z,21.29
2023-04-26T08:58:59.369Z,21.28
2023-04-26T09:00:04.800Z,21.25
2023-04-26T09:01:10.297Z,21.26
2023-04-26T09:02:15.807Z,21.26
2023-04-26T09:03:21.533Z,21.23
2023-04-26T09:04:27.622Z,21.23
2023-04-26T09:05:33.640Z,21.29
2023-04-26T09:06:39.065Z,21.28
2023-04-26T09:07:44.448Z,21.26
2023-04-26T09:08:49.909Z,21.27
2023-04-26T09:09:55.298Z,21.29
2023-04-26T09:11:00.740Z,21.3
2023-04-26T09:12:06.148Z,21.29
2023-04-26T09:13:11.552Z,21.27
2023-04-26T09:14:16.984Z,21.23
2023-04-26T09:15:22.401Z,21.21
2023-04-26T09:16:27.926Z,21.22
2023-04-26T09:17:33.650Z,21.27
2023-04-26T09:18:39.150Z,21.26
2023-04-26T09:19:44.544Z,21.27
2023-04-26T09:20:49.901Z,21.3
2023-04-26T09:21:55.273Z,21.27
2023-04-26T09:23:00.657Z,21.3
2023-04-26T09:24:06.008Z,21.3
2023-04-26T09:25:11.402Z,21.28
2023-04-26T09:26:16.749Z,21.29
2023-04-26T09:27:22.306Z,21.25
2023-04-26T09:28:27.669Z,21.24
2023-04-26T09:29:33.124Z,21.26
2023-04-26T09:30:38.534Z,21.26
2023-04-26T09:31:44.495Z,21.27
2023-04-26T09:32:53.705Z,21.28
2023-04-26T09:33:59.187Z,21.26
2023-04-26T09:35:04.608Z,21.23
2023-04-26T09:36:10.033Z,21.27
2023-04-26T09:37:15.413Z,21.25
2023-04-26T09:38:20.799Z,21.26
2023-04-26T09:39:26.168Z,21.26
2023-04-26T09:40:31.555Z,21.24
2023-04-26T09:41:36.946Z,21.21
2023-04-26T09:42:42.346Z,21.22
2023-04-26T09:43:47.711Z,21.22
2023-04-26T09:44:53.088Z,21.23
2023-04-26T09:45:58.527Z,21.26
2023-04-26T09:47:04.062Z,21.27
2023-04-26T09:48:09.971Z,21.26
2023-04-26T09:49:15.429Z,21.25
2023-04-26T09:50:20.823Z,21.27
2023-04-26T09:51:26.274Z,21.27
2023-04-26T09:52:31.682Z,21.27
2023-04-26T09:53:37.165Z,21.27
2023-04-26T09:54:42.605Z,21.25
2023-04-26T09:55:47.979Z,21.24
2023-04-26T09:56:53.377Z,21.22
2023-04-26T09:57:58.972Z,21.27
2023-04-26T09:59:04.375Z,21.26
2023-04-26T10:00:09.792Z,21.2
2023-04-26T10:01:15.285Z,21.21
2023-04-26T10:02:21.139Z,21.2
2023-04-26T10:03:26.764Z,21.22
2023-04-26T10:04:32.582Z,21.25
2023-04-26T10:05:38.140Z,21.25
2023-04-26T10:06:43.542Z,21.25
2023-04-26T10:07:48.951Z,21.25
2023-04-26T10:08:54.564Z,21.22
2023-04-26T10:10:00.713Z,21.2
2023-04-26T10:11:06.121Z,21.21
2023-04-26T10:12:11.638Z,21.22
2023-04-26T10:13:17.026Z,21.2
2023-04-26T10:14:22.446Z,21.22
2023-04-26T10:15:27.811Z,21.22
2023-04-26T10:16:33.253Z,21.23
2023-04-26T10:17:38.811Z,21.22
2023-04-26T10:18:44.493Z,21.23
2023-04-26T10:19:49.880Z,21.23
2023-04-26T10:20:55.273Z,21.22
2023-04-26T10:22:00.634Z,21.21
2023-04-26T10:23:06.015Z,21.2
2023-04-26T10:24:11.407Z,21.21
2023-04-26T10:25:16.758Z,21.23
2023-04-26T10:26:22.166Z,21.22
2023-04-26T10:27:27.550Z,21.25
2023-04-26T10:28:32.970Z,21.25
2023-04-26T10:29:38.335Z,21.25
2023-04-26T10:30:43.757Z,21.24
2023-04-26T10:31:49.173Z,21.27
2023-04-26T10:32:54.700Z,21.27
2023-04-26T10:34:00.608Z,21.25
2023-04-26T10:35:05.995Z,21.25
2023-04-26T10:36:11.402Z,21.27
2023-04-26T10:37:16.799Z,21.25
2023-04-26T10:38:22.237Z,21.27
2023-04-26T10:39:27.620Z,21.27
2023-04-26T10:40:33.016Z,21.28
2023-04-26T10:41:38.432Z,21.27
2023-04-26T10:42:43.851Z,21.28
2023-04-26T10:43:49.523Z,21.28
2023-04-26T10:44:55.675Z,21.26
2023-04-26T10:46:01.223Z,21.22
2023-04-26T10:47:06.861Z,21.21
2023-04-26T10:48:12.317Z,21.21
2023-04-26T10:49:17.745Z,21.22
2023-04-26T10:50:23.222Z,21.22
2023-04-26T10:51:28.630Z,21.23
2023-04-26T10:52:34.098Z,21.23
2023-04-26T10:53:39.709Z,21.23
2023-04-26T10:54:45.129Z,21.25
2023-04-26T10:55:50.640Z,21.27
2023-04-26T10:56:56.050Z,21.28
2023-04-26T10:58:01.477Z,21.27
2023-04-26T10:59:17.983Z,21.26
2023-04-26T11:00:57.654Z,21.24
2023-04-26T11:02:06.264Z,21.23
2023-04-26T11:03:11.781Z,21.25
2023-04-26T11:04:17.697Z,21.22
2023-04-26T11:05:25.396Z,21.21
2023-04-26T11:06:30.915Z,21.19
2023-04-26T11:07:36.324Z,21.22
2023-04-26T11:08:41.799Z,21.23
2023-04-26T11:09:47.313Z,21.24
2023-04-26T11:10:52.725Z,21.2
2023-04-26T11:11:58.335Z,21.18
2023-04-26T11:13:03.775Z,21.17
2023-04-26T11:14:09.308Z,21.18
2023-04-26T11:15:14.722Z,21.18
2023-04-26T11:16:20.302Z,21.22
2023-04-26T11:17:25.973Z,21.22
2023-04-26T11:18:31.494Z,21.22
2023-04-26T11:19:36.960Z,21.23
2023-04-26T11:20:42.485Z,21.23
2023-04-26T11:21:47.940Z,21.22
2023-04-26T11:22:53.361Z,21.22
2023-04-26T11:23:58.795Z,21.21
2023-04-26T11:25:04.193Z,21.15
2023-04-26T11:26:09.613Z,21.18
2023-04-26T11:27:15.135Z,21.18
2023-04-26T11:28:20.582Z,21.2
2023-04-26T11:29:26.043Z,21.21
2023-04-26T11:30:31.483Z,21.21
2023-04-26T11:31:36.972Z,21.21
2023-04-26T11:32:42.478Z,21.2
2023-04-26T11:33:50.528Z,21.21
2023-04-26T11:34:56.254Z,21.21
2023-04-26T11:36:01.647Z,21.19
2023-04-26T11:37:07.099Z,21.17
2023-04-26T11:38:12.561Z,21.18
2023-04-26T11:39:17.991Z,21.18
2023-04-26T11:40:23.471Z,21.19
2023-04-26T11:41:28.892Z,21.19
2023-04-26T11:42:34.297Z,21.19
2023-04-26T11:43:39.822Z,21.21
2023-04-26T11:44:45.750Z,21.22
2023-04-26T11:45:52.050Z,21.2
2023-04-26T11:46:57.478Z,21.21
2023-04-26T11:48:03.113Z,21.23
2023-04-26T11:49:08.852Z,21.23
2023-04-26T11:50:14.301Z,21.23
2023-04-26T11:51:19.715Z,21.21
2023-04-26T11:52:25.090Z,21.15
2023-04-26T11:53:30.560Z,21.18
2023-04-26T11:54:36.022Z,21.17
2023-04-26T11:55:42.115Z,21.17
2023-04-26T11:56:47.515Z,21.17
2023-04-26T11:57:52.902Z,21.14
2023-04-26T11:58:58.302Z,21.14
2023-04-26T12:00:03.784Z,21.15
2023-04-26T12:01:09.198Z,21.13
2023-04-26T12:02:14.741Z,21.12
2023-04-26T12:03:20.616Z,21.11
2023-04-26T12:04:28.294Z,21.1
2023-04-26T12:05:35.943Z,21.1
2023-04-26T12:06:41.766Z,21.11
2023-04-26T12:07:47.188Z,21.11
2023-04-26T12:08:52.742Z,21.14
2023-04-26T12:10:00.293Z,21.13
2023-04-26T12:11:06.425Z,21.11
2023-04-26T12:12:11.826Z,21.12
2023-04-26T12:13:17.230Z,21.14
2023-04-26T12:14:22.632Z,21.14
2023-04-26T12:15:28.047Z,21.14
2023-04-26T12:16:33.446Z,21.15
2023-04-26T12:17:39.095Z,21.14
2023-04-26T12:18:44.609Z,21.14
2023-04-26T12:19:50.043Z,21.16
2023-04-26T12:20:55.452Z,21.15
2023-04-26T12:22:00.833Z,21.14
2023-04-26T12:23:06.378Z,21.16
2023-04-26T12:24:11.805Z,21.16
2023-04-26T12:25:17.229Z,21.16
2023-04-26T12:26:22.635Z,21.15
2023-04-26T12:27:28.023Z,21.16
2023-04-26T12:28:33.379Z,21.18
2023-04-26T12:29:38.775Z,21.18
2023-04-26T12:30:44.237Z,21.19
2023-04-26T12:31:49.688Z,21.2
2023-04-26T12:32:57.788Z,21.19
2023-04-26T12:34:20.886Z,21.2
2023-04-26T12:35:26.296Z,21.19
2023-04-26T12:36:31.766Z,21.2
2023-04-26T12:37:37.185Z,21.2
2023-04-26T12:38:42.550Z,21.22
2023-04-26T12:39:47.956Z,21.22
2023-04-26T12:40:53.340Z,21.21
2023-04-26T12:41:58.782Z,21.21
2023-04-26T12:43:04.179Z,21.19
2023-04-26T12:44:09.628Z,21.19
2023-04-26T12:45:15.035Z,21.2
2023-04-26T12:46:20.443Z,21.18
2023-04-26T12:47:26.095Z,21.17
2023-04-26T12:48:31.556Z,21.18
2023-04-26T12:49:36.946Z,21.17
2023-04-26T12:50:42.311Z,21.18
2023-04-26T12:51:47.694Z,21.18
2023-04-26T12:52:53.066Z,21.18
2023-04-26T12:53:58.601Z,21.19
2023-04-26T12:55:04.068Z,21.2
2023-04-26T12:56:09.472Z,21.2
2023-04-26T12:57:14.891Z,21.2
2023-04-26T12:58:20.250Z,21.2
2023-04-26T12:59:25.676Z,21.21
2023-04-26T13:00:31.098Z,21.22
2023-04-26T13:01:36.505Z,21.21
2023-04-26T13:02:42.250Z,21.19
2023-04-26T13:03:48.120Z,21.2
2023-04-26T13:04:54.283Z,21.19
2023-04-26T13:05:59.971Z,21.19
2023-04-26T13:07:05.388Z,21.18
2023-04-26T13:08:10.834Z,21.18
2023-04-26T13:09:16.879Z,21.17
2023-04-26T13:10:22.289Z,21.18
2023-04-26T13:11:27.678Z,21.14
2023-04-26T13:12:33.056Z,21.15
2023-04-26T13:13:43.429Z,21.17
2023-04-26T13:14:49.378Z,21.16
2023-04-26T13:15:54.832Z,21.17
2023-04-26T13:17:00.364Z,21.18
2023-04-26T13:18:05.825Z,21.16
2023-04-26T13:19:11.446Z,21.18
2023-04-26T13:20:16.849Z,21.19
2023-04-26T13:21:22.301Z,21.21
2023-04-26T13:22:27.878Z,21.2
2023-04-26T13:23:33.256Z,21.19
2023-04-26T13:24:38.664Z,21.19
2023-04-26T13:25:44.052Z,21.17
2023-04-26T13:26:49.436Z,21.14
2023-04-26T13:27:54.827Z,21.14
2023-04-26T13:29:00.265Z,21.17
2023-04-26T13:30:05.638Z,21.18
2023-04-26T13:31:11.048Z,21.19
2023-04-26T13:32:16.508Z,21.2
2023-04-26T13:33:21.937Z,21.18
2023-04-26T13:34:27.584Z,21.2
2023-04-26T13:35:32.966Z,21.19
2023-04-26T13:36:38.353Z,21.19
2023-04-26T13:37:43.720Z,21.19
2023-04-26T13:38:49.099Z,21.18
2023-04-26T13:39:54.452Z,21.19
2023-04-26T13:40:59.833Z,21.18
2023-04-26T13:42:05.196Z,21.19
2023-04-26T13:43:10.559Z,21.17
2023-04-26T13:44:15.976Z,21.19
2023-04-26T13:45:21.376Z,21.18
2023-04-26T13:46:26.765Z,21.17
2023-04-26T13:47:32.322Z,21.18
2023-04-26T13:48:37.777Z,21.19
2023-04-26T13:49:43.199Z,21.17
2023-04-26T13:50:48.633Z,21.17
2023-04-26T13:51:54.064Z,21.14
2023-04-26T13:52:59.459Z,21.15
2023-04-26T13:54:04.849Z,21.14
2023-04-26T13:55:10.246Z,21.15
2023-04-26T13:56:17.545Z,21.16
2023-04-26T13:57:23.012Z,21.16
2023-04-26T13:58:28.429Z,21.18
2023-04-26T13:59:33.851Z,21.21
2023-04-26T14:00:39.255Z,21.2
2023-04-26T14:01:44.650Z,21.21
2023-04-26T14:02:50.288Z,21.18
2023-04-26T14:03:56.409Z,21.19
2023-04-26T14:05:02.664Z,21.19
2023-04-26T14:06:08.573Z,21.19
2023-04-26T14:07:14.017Z,21.2
2023-04-26T14:08:19.387Z,21.18